createdAt,value
2022-08-26T00:02:07.091Z,75.25
2022-08-26T00:04:34.165Z,74.96
2022-08-26T00:07:00.570Z,74.93
2022-08-26T00:09:27.019Z,74.91
2022-08-26T00:11:54.448Z,75.19
2022-08-26T00:14:21.128Z,75.09
2022-08-26T00:16:49.056Z,74.90
2022-08-26T00:19:18.041Z,74.95
2022-08-26T00:21:45.203Z,74.89
2022-08-26T00:24:11.898Z,75.37
2022-08-26T00:26:39.223Z,75.42
2022-08-26T00:29:07.761Z,75.66
2022-08-26T00:31:35.791Z,76.36
2022-08-26T00:34:02.520Z,75.25
2022-08-26T00:36:30.013Z,74.89
2022-08-26T00:38:57.745Z,74.79
2022-08-26T00:41:24.144Z,74.87
2022-08-26T00:43:51.212Z,75.62
2022-08-26T00:46:21.650Z,75.19
2022-08-26T00:48:52.452Z,75.15
2022-08-26T00:51:22.974Z,75.42
2022-08-26T00:53:55.785Z,75.01
2022-08-26T00:56:38.532Z,75.68
2022-08-26T00:59:08.032Z,75.12
2022-08-26T01:01:34.611Z,76.43
2022-08-26T01:04:01.108Z,75.94
2022-08-26T01:06:28.461Z,75.39
2022-08-26T01:08:55.087Z,75.35
2022-08-26T01:11:21.699Z,75.89
2022-08-26T01:13:49.109Z,75.09
2022-08-26T01:16:16.894Z,75.20
2022-08-26T01:18:44.235Z,74.81
2022-08-26T01:21:27.156Z,75.18
2022-08-26T01:23:57.687Z,74.86
2022-08-26T01:26:33.119Z,74.47
2022-08-26T01:29:00.869Z,75.26
2022-08-26T01:31:30.093Z,74.96
2022-08-26T01:34:05.523Z,75.33
2022-08-26T01:36:32.165Z,75.44
2022-08-26T01:38:58.587Z,75.50
2022-08-26T01:41:27.581Z,75.38
2022-08-26T01:43:57.132Z,75.08
2022-08-26T01:46:26.285Z,75.73
2022-08-26T01:48:55.071Z,75.60
2022-08-26T01:51:22.879Z,75.36
2022-08-26T01:53:49.627Z,75.59
2022-08-26T01:56:16.282Z,75.27
2022-08-26T01:58:49.898Z,75.07
2022-08-26T02:01:18.426Z,75.36
2022-08-26T02:03:53.265Z,75.40
2022-08-26T02:06:19.809Z,75.93
2022-08-26T02:08:52.506Z,76.31
2022-08-26T02:11:19.518Z,75.57
2022-08-26T02:13:52.466Z,75.48
2022-08-26T02:16:23.708Z,75.45
2022-08-26T02:18:50.608Z,75.97
2022-08-26T02:21:19.826Z,75.86
2022-08-26T02:23:46.373Z,76.36
2022-08-26T02:26:16.314Z,75.95
2022-08-26T02:29:10.252Z,75.91
2022-08-26T02:31:36.865Z,75.43
2022-08-26T02:34:10.733Z,75.35
2022-08-26T02:36:37.894Z,75.10
2022-08-26T02:39:06.952Z,76.36
2022-08-26T02:41:35.433Z,76.33
2022-08-26T02:44:11.259Z,75.59
2022-08-26T02:46:38.444Z,76.62
2022-08-26T02:49:06.507Z,76.36
2022-08-26T02:51:33.377Z,76.50
2022-08-26T02:53:59.821Z,75.82
2022-08-26T02:56:28.131Z,76.36
2022-08-26T02:58:54.849Z,76.08
2022-08-26T03:01:26.922Z,76.70
2022-08-26T03:03:54.278Z,77.05
2022-08-26T03:06:21.021Z,77.06
2022-08-26T03:08:47.448Z,76.85
2022-08-26T03:11:14.370Z,76.27
2022-08-26T03:13:41.477Z,77.08
2022-08-26T03:16:08.501Z,76.00
2022-08-26T03:18:35.246Z,76.59
2022-08-26T03:21:20.866Z,76.94
2022-08-26T03:23:47.747Z,77.26
2022-08-26T03:26:15.963Z,76.62
2022-08-26T03:29:00.841Z,76.92
2022-08-26T03:31:28.134Z,77.41
2022-08-26T03:33:57.650Z,76.77
2022-08-26T03:36:26.231Z,77.14
2022-08-26T03:38:52.644Z,77.44
2022-08-26T03:41:19.139Z,76.85
2022-08-26T03:43:47.591Z,77.93
2022-08-26T03:46:14.589Z,77.17
2022-08-26T03:48:41.034Z,76.90
2022-08-26T03:51:18.352Z,77.06
2022-08-26T03:53:46.072Z,77.38
2022-08-26T03:56:12.799Z,77.25
2022-08-26T03:58:39.300Z,76.99
2022-08-26T04:01:09.376Z,76.92
2022-08-26T04:03:54.233Z,77.39
2022-08-26T04:06:20.701Z,77.26
2022-08-26T04:08:47.982Z,77.35
2022-08-26T04:11:22.436Z,76.93
2022-08-26T04:13:49.070Z,77.23
2022-08-26T04:16:17.281Z,77.08
2022-08-26T04:18:46.443Z,76.90
2022-08-26T04:21:13.363Z,76.78
2022-08-26T04:23:47.041Z,76.84
2022-08-26T04:26:15.080Z,76.21
2022-08-26T04:28:41.589Z,76.27
2022-08-26T04:31:12.467Z,75.66
2022-08-26T04:33:41.828Z,75.14
2022-08-26T04:36:10.001Z,76.17
2022-08-26T04:38:36.449Z,76.49
2022-08-26T04:41:05.450Z,76.11
2022-08-26T04:43:32.234Z,76.64
2022-08-26T04:46:00.280Z,76.39
2022-08-26T04:48:32.323Z,76.51
2022-08-26T04:50:59.892Z,76.91
2022-08-26T04:53:27.162Z,76.72
2022-08-26T04:55:55.358Z,77.56
2022-08-26T04:58:22.588Z,77.12
2022-08-26T05:00:51.520Z,77.26
2022-08-26T05:03:18.731Z,76.25
2022-08-26T05:05:46.668Z,76.83
2022-08-26T05:08:15.017Z,77.15
2022-08-26T05:10:44.413Z,76.72
2022-08-26T05:13:15.909Z,76.43
2022-08-26T05:15:43.218Z,76.92
2022-08-26T05:18:10.553Z,76.67
2022-08-26T05:20:45.820Z,76.48
2022-08-26T05:23:13.761Z,76.35
2022-08-26T05:25:43.115Z,76.25
2022-08-26T05:28:10.527Z,76.54
2022-08-26T05:30:37.501Z,76.38
2022-08-26T05:33:04.598Z,76.11
2022-08-26T05:35:33.672Z,76.42
2022-08-26T05:38:01.812Z,76.19
2022-08-26T05:40:29.026Z,76.04
2022-08-26T05:42:55.486Z,75.94
2022-08-26T05:45:24.038Z,76.21
2022-08-26T05:47:51.217Z,76.40
2022-08-26T05:50:21.788Z,76.48
2022-08-26T05:52:49.873Z,75.70
2022-08-26T05:55:16.809Z,76.53
2022-08-26T05:57:45.352Z,76.08
2022-08-26T06:00:15.377Z,75.49
2022-08-26T06:02:41.968Z,74.95
2022-08-26T06:05:08.677Z,74.81
2022-08-26T06:07:53.784Z,75.34
2022-08-26T06:10:32.108Z,75.46
2022-08-26T06:13:02.249Z,75.06
2022-08-26T06:15:39.828Z,75.14
2022-08-26T06:18:08.926Z,75.40
2022-08-26T06:20:36.601Z,75.61
2022-08-26T06:23:22.671Z,75.26
2022-08-26T06:25:50.341Z,74.29
2022-08-26T06:28:17.254Z,74.53
2022-08-26T06:30:44.547Z,73.79
2022-08-26T06:33:11.492Z,73.81
2022-08-26T06:35:39.749Z,74.17
2022-08-26T06:38:06.555Z,73.99
2022-08-26T06:40:33.067Z,73.18
2022-08-26T06:42:59.501Z,73.37
2022-08-26T06:45:26.293Z,72.79
2022-08-26T06:47:52.795Z,73.31
2022-08-26T06:50:19.264Z,72.82
2022-08-26T06:52:45.721Z,73.06
2022-08-26T06:55:12.206Z,73.16
2022-08-26T06:57:39.661Z,73.16
2022-08-26T07:00:10.401Z,73.26
2022-08-26T07:02:37.823Z,72.85
2022-08-26T07:05:05.254Z,72.39
2022-08-26T07:07:31.972Z,72.48
2022-08-26T07:09:58.504Z,72.76
2022-08-26T07:12:25.736Z,72.64
2022-08-26T07:14:52.946Z,72.25
2022-08-26T07:17:20.400Z,71.98
2022-08-26T07:19:48.620Z,72.09
2022-08-26T07:22:16.289Z,71.68
2022-08-26T07:24:42.871Z,71.33
2022-08-26T07:29:45.042Z,72.48
2022-08-26T07:32:14.269Z,72.29
2022-08-26T07:34:44.661Z,71.81
2022-08-26T07:37:11.402Z,71.69
2022-08-26T07:39:37.972Z,70.97
2022-08-26T07:42:07.899Z,70.75
2022-08-26T07:44:36.469Z,70.73
2022-08-26T07:47:02.959Z,71.01
2022-08-26T07:49:36.758Z,71.01
2022-08-26T07:52:04.428Z,70.69
2022-08-26T07:54:30.853Z,71.31
2022-08-26T07:56:57.324Z,70.95
2022-08-26T07:59:24.436Z,71.06
2022-08-26T08:01:51.184Z,70.88
2022-08-26T08:04:21.938Z,71.11
2022-08-26T08:06:52.801Z,70.97
2022-08-26T08:09:19.218Z,70.57
2022-08-26T08:11:45.926Z,70.27
2022-08-26T08:14:15.301Z,70.36
2022-08-26T08:16:46.778Z,70.90
2022-08-26T08:19:14.746Z,70.29
2022-08-26T08:21:41.600Z,71.24
2022-08-26T08:24:08.314Z,71.00
2022-08-26T08:26:35.209Z,71.40
2022-08-26T08:29:01.601Z,71.60
2022-08-26T08:31:57.932Z,70.75
2022-08-26T08:34:19.132Z,70.89
2022-08-26T08:36:47.902Z,70.61
2022-08-26T08:39:14.351Z,70.64
2022-08-26T08:42:04.188Z,70.56
2022-08-26T08:44:31.007Z,70.06
2022-08-26T08:47:17.493Z,70.51
2022-08-26T08:49:44.273Z,69.91
2022-08-26T08:52:18.818Z,69.72
2022-08-26T08:54:46.223Z,70.64
2022-08-26T08:57:18.211Z,70.83
2022-08-26T09:00:04.071Z,69.83
2022-08-26T09:02:36.143Z,69.84
2022-08-26T09:05:08.764Z,69.51
2022-08-26T09:07:50.640Z,69.33
2022-08-26T09:10:21.239Z,69.39
2022-08-26T09:12:47.993Z,70.18
2022-08-26T09:15:18.850Z,69.89
2022-08-26T09:17:50.849Z,69.93
2022-08-26T09:20:48.515Z,69.74
2022-08-26T09:23:15.885Z,69.63
2022-08-26T09:25:47.995Z,69.25
2022-08-26T09:28:18.754Z,69.11
2022-08-26T09:30:47.065Z,68.43
2022-08-26T09:33:17.695Z,68.70
2022-08-26T09:35:48.730Z,68.12
2022-08-26T09:38:28.000Z,67.84
2022-08-26T09:41:03.768Z,68.09
2022-08-26T09:43:32.371Z,67.67
2022-08-26T09:46:21.259Z,67.95
2022-08-26T09:48:48.079Z,67.60
2022-08-26T09:51:24.569Z,66.63
2022-08-26T09:53:54.382Z,67.39
2022-08-26T09:56:32.558Z,66.57
2022-08-26T09:59:00.932Z,66.01
2022-08-26T10:01:38.045Z,65.17
2022-08-26T10:04:14.004Z,65.08
2022-08-26T10:07:00.075Z,64.50
2022-08-26T10:09:28.024Z,65.04
2022-08-26T10:12:01.149Z,65.12
2022-08-26T10:14:48.569Z,65.40
2022-08-26T10:17:25.232Z,65.45
2022-08-26T10:19:57.731Z,66.21
2022-08-26T10:22:25.965Z,66.46
2022-08-26T10:24:57.880Z,65.96
2022-08-26T10:27:30.392Z,66.05
2022-08-26T10:30:02.750Z,66.34
2022-08-26T10:32:37.326Z,66.19
2022-08-26T10:35:11.976Z,66.21
2022-08-26T10:37:54.146Z,66.76
2022-08-26T10:40:25.702Z,66.83
2022-08-26T10:43:11.475Z,66.37
2022-08-26T10:45:51.010Z,66.86
2022-08-26T10:48:24.370Z,65.98
2022-08-26T10:50:50.907Z,67.60
2022-08-26T10:53:27.288Z,69.31
2022-08-26T10:56:02.034Z,70.69
2022-08-26T10:58:55.276Z,70.67
2022-08-26T11:01:50.990Z,70.53
2022-08-26T11:04:47.100Z,72.36
2022-08-26T11:07:45.935Z,71.33
2022-08-26T11:10:21.542Z,71.61
2022-08-26T11:12:52.136Z,72.15
2022-08-26T11:15:19.861Z,71.64
2022-08-26T11:17:51.087Z,70.89
2022-08-26T11:20:23.888Z,70.40
2022-08-26T11:22:52.105Z,69.60
2022-08-26T11:25:20.037Z,69.84
2022-08-26T11:27:52.398Z,69.21
2022-08-26T11:30:20.101Z,69.45
2022-08-26T11:32:52.973Z,69.71
2022-08-26T11:35:19.315Z,69.46
2022-08-26T11:37:50.648Z,70.38
2022-08-26T11:40:21.543Z,69.67
2022-08-26T11:43:00.942Z,70.75
2022-08-26T11:45:32.680Z,69.96
2022-08-26T11:47:59.181Z,69.65
2022-08-26T11:50:27.750Z,68.64
2022-08-26T11:53:04.729Z,69.00
2022-08-26T11:55:34.797Z,68.29
2022-08-26T11:58:06.960Z,68.34
2022-08-26T12:00:38.805Z,67.34
2022-08-26T12:03:18.040Z,67.17
2022-08-26T12:05:47.472Z,67.26
2022-08-26T12:08:17.365Z,67.08
2022-08-26T12:10:44.128Z,67.52
2022-08-26T12:13:22.039Z,66.86
2022-08-26T12:16:01.589Z,67.00
2022-08-26T12:18:35.947Z,66.67
2022-08-26T12:21:22.026Z,66.37
2022-08-26T12:23:54.550Z,65.79
2022-08-26T12:26:28.267Z,65.40
2022-08-26T12:29:01.320Z,64.37
2022-08-26T12:31:42.227Z,64.46
2022-08-26T12:34:18.039Z,63.72
2022-08-26T12:36:54.704Z,63.79
2022-08-26T12:39:30.547Z,63.79
2022-08-26T12:42:01.737Z,63.65
2022-08-26T12:44:54.223Z,63.63
2022-08-26T12:47:31.004Z,64.31
2022-08-26T12:50:17.928Z,65.17
2022-08-26T12:53:05.495Z,64.44
2022-08-26T12:55:31.808Z,64.37
2022-08-26T12:58:32.421Z,64.63
2022-08-26T13:01:22.006Z,63.61
2022-08-26T13:03:49.209Z,64.04
2022-08-26T13:06:31.292Z,63.93
2022-08-26T13:09:07.867Z,64.17
2022-08-26T13:11:54.119Z,65.27
2022-08-26T13:14:24.321Z,64.59
2022-08-26T13:16:51.835Z,64.06
2022-08-26T13:19:20.967Z,63.89
2022-08-26T13:21:53.784Z,63.18
2022-08-26T13:24:22.984Z,64.40
2022-08-26T13:26:49.776Z,63.86
2022-08-26T13:29:17.011Z,63.48
2022-08-26T13:31:44.922Z,63.61
2022-08-26T13:34:14.057Z,63.64
2022-08-26T13:36:42.103Z,63.68
2022-08-26T13:39:08.499Z,63.86
2022-08-26T13:41:34.976Z,64.23
2022-08-26T13:44:01.721Z,63.48
2022-08-26T13:46:28.777Z,62.99
2022-08-26T13:48:56.589Z,62.97
2022-08-26T13:51:23.564Z,62.33
2022-08-26T13:53:50.687Z,63.05
2022-08-26T13:56:18.703Z,62.08
2022-08-26T13:58:46.163Z,62.52
2022-08-26T14:01:13.150Z,62.70
2022-08-26T14:03:39.645Z,62.47
2022-08-26T14:06:06.118Z,62.67
2022-08-26T14:08:32.590Z,62.86
2022-08-26T14:10:59.567Z,62.99
2022-08-26T14:13:26.292Z,63.04
2022-08-26T14:15:52.858Z,63.72
2022-08-26T14:18:23.835Z,63.19
2022-08-26T14:20:52.837Z,63.50
2022-08-26T14:23:19.259Z,62.59
2022-08-26T14:25:45.702Z,63.26
2022-08-26T14:28:12.194Z,62.70
2022-08-26T14:30:42.843Z,62.53
2022-08-26T14:33:12.728Z,62.53
2022-08-26T14:35:39.789Z,62.50
2022-08-26T14:38:06.970Z,62.51
2022-08-26T14:40:34.032Z,62.88
2022-08-26T14:43:05.341Z,62.88
2022-08-26T14:45:32.442Z,63.50
2022-08-26T14:47:59.694Z,63.44
2022-08-26T14:50:26.452Z,63.96
2022-08-26T14:53:12.744Z,64.00
2022-08-26T14:55:41.243Z,64.63
2022-08-26T14:58:09.656Z,64.27
2022-08-26T15:00:36.747Z,64.04
2022-08-26T15:03:03.607Z,64.49
2022-08-26T15:05:30.415Z,64.58
2022-08-26T15:07:56.862Z,65.01
2022-08-26T15:10:23.339Z,64.21
2022-08-26T15:12:49.753Z,65.10
2022-08-26T15:15:17.269Z,64.79
2022-08-26T15:17:44.451Z,64.74
2022-08-26T15:20:11.816Z,65.25
2022-08-26T15:22:39.104Z,65.12
2022-08-26T15:25:07.523Z,64.59
2022-08-26T15:27:33.944Z,64.45
2022-08-26T15:30:07.182Z,64.39
2022-08-26T15:32:33.632Z,64.61
2022-08-26T15:35:00.097Z,64.42
2022-08-26T15:37:26.496Z,64.09
2022-08-26T15:39:53.703Z,64.24
2022-08-26T15:42:20.855Z,64.15
2022-08-26T15:44:47.297Z,64.15
2022-08-26T15:47:13.768Z,63.46
2022-08-26T15:49:40.282Z,63.17
2022-08-26T15:52:07.472Z,62.14
2022-08-26T15:54:35.067Z,62.13
2022-08-26T15:57:02.527Z,61.68
2022-08-26T15:59:32.292Z,61.53
2022-08-26T16:02:15.781Z,61.50
2022-08-26T16:04:42.634Z,61.89
2022-08-26T16:07:10.037Z,61.55
2022-08-26T16:09:36.465Z,61.16
2022-08-26T16:12:03.144Z,61.42
2022-08-26T16:14:29.965Z,61.70
2022-08-26T16:16:57.433Z,61.56
2022-08-26T16:19:24.121Z,60.91
2022-08-26T16:21:53.124Z,60.60
2022-08-26T16:24:24.896Z,59.96
2022-08-26T16:26:54.382Z,59.30
2022-08-26T16:29:20.793Z,60.28
2022-08-26T16:31:50.389Z,60.43
2022-08-26T16:34:17.249Z,59.91
2022-08-26T16:36:43.651Z,59.44
2022-08-26T16:39:10.214Z,59.58
2022-08-26T16:41:36.717Z,59.45
2022-08-26T16:44:05.996Z,59.03
2022-08-26T16:46:33.455Z,59.09
2022-08-26T16:49:05.985Z,58.78
2022-08-26T16:51:32.608Z,58.85
2022-08-26T16:54:06.990Z,58.63
2022-08-26T16:56:34.502Z,59.21
2022-08-26T16:59:04.023Z,59.12
2022-08-26T17:01:30.481Z,59.11
2022-08-26T17:03:57.187Z,59.09
2022-08-26T17:06:24.605Z,58.58
2022-08-26T17:08:51.452Z,58.84
2022-08-26T17:11:18.870Z,58.96
2022-08-26T17:13:45.251Z,58.70
2022-08-26T17:16:12.603Z,58.43
2022-08-26T17:18:39.336Z,58.79
2022-08-26T17:21:08.504Z,58.10
2022-08-26T17:23:36.318Z,58.75
2022-08-26T17:26:03.131Z,59.27
2022-08-26T17:28:29.609Z,59.08
2022-08-26T17:30:59.223Z,59.73
2022-08-26T17:33:26.152Z,59.03
2022-08-26T17:35:53.131Z,59.43
2022-08-26T17:38:20.995Z,59.37
2022-08-26T17:40:47.401Z,59.81
2022-08-26T17:43:13.809Z,60.24
2022-08-26T17:45:40.998Z,59.27
2022-08-26T17:48:08.097Z,59.25
2022-08-26T17:50:34.893Z,59.40
2022-08-26T17:53:01.305Z,59.17
2022-08-26T17:55:27.871Z,59.73
2022-08-26T17:57:54.269Z,59.69
2022-08-26T18:00:23.074Z,60.26
2022-08-26T18:02:49.563Z,60.37
2022-08-26T18:05:17.404Z,60.02
2022-08-26T18:07:44.835Z,60.17
2022-08-26T18:10:13.733Z,60.12
2022-08-26T18:12:40.899Z,59.43
2022-08-26T18:15:08.328Z,59.22
2022-08-26T18:17:35.040Z,59.48
2022-08-26T18:20:01.649Z,59.94
2022-08-26T18:22:28.093Z,59.63
2022-08-26T18:24:59.171Z,59.97
2022-08-26T18:27:28.831Z,59.83
2022-08-26T18:29:56.344Z,60.06
2022-08-26T18:32:22.792Z,59.86
2022-08-26T18:34:49.364Z,59.71
2022-08-26T18:37:15.839Z,59.91
2022-08-26T18:39:42.303Z,60.24
2022-08-26T18:42:08.948Z,60.52
2022-08-26T18:44:35.364Z,60.00
2022-08-26T18:47:01.900Z,60.99
2022-08-26T18:49:28.740Z,61.17
2022-08-26T18:51:55.249Z,60.81
2022-08-26T18:54:21.943Z,60.73
2022-08-26T18:56:48.620Z,61.03
2022-08-26T18:59:15.171Z,61.20
2022-08-26T19:01:42.291Z,61.23
2022-08-26T19:04:14.709Z,61.37
2022-08-26T19:06:46.872Z,61.24
2022-08-26T19:09:14.679Z,61.66
2022-08-26T19:11:44.972Z,61.21
2022-08-26T19:14:15.688Z,61.72
2022-08-26T19:16:44.523Z,61.88
2022-08-26T19:19:11.290Z,62.25
2022-08-26T19:21:38.097Z,62.32
2022-08-26T19:24:08.476Z,62.17
2022-08-26T19:26:36.474Z,62.27
2022-08-26T19:29:03.092Z,61.96
2022-08-26T19:31:29.559Z,62.14
2022-08-26T19:33:57.871Z,62.19
2022-08-26T19:36:25.412Z,62.94
2022-08-26T19:38:52.370Z,62.86
2022-08-26T19:41:22.476Z,62.85
2022-08-26T19:43:50.177Z,63.13
2022-08-26T19:46:19.890Z,62.76
2022-08-26T19:48:47.574Z,62.74
2022-08-26T19:51:24.311Z,62.40
2022-08-26T19:53:51.533Z,62.09
2022-08-26T19:56:18.280Z,62.63
2022-08-26T19:58:45.309Z,62.74
2022-08-26T20:01:12.883Z,62.46
2022-08-26T20:03:40.316Z,62.46
2022-08-26T20:06:07.968Z,62.52
2022-08-26T20:08:35.836Z,62.88
2022-08-26T20:11:04.788Z,62.47
2022-08-26T20:13:32.549Z,62.30
2022-08-26T20:15:59.341Z,62.83
2022-08-26T20:18:44.403Z,62.67
2022-08-26T20:21:26.211Z,63.44
2022-08-26T20:23:58.962Z,63.24
2022-08-26T20:26:27.667Z,62.94
2022-08-26T20:28:54.991Z,63.21
2022-08-26T20:31:21.972Z,63.61
2022-08-26T20:33:48.696Z,63.56
2022-08-26T20:36:15.524Z,64.24
2022-08-26T20:38:41.959Z,64.11
2022-08-26T20:41:08.375Z,64.38
2022-08-26T20:43:34.765Z,64.37
2022-08-26T20:46:01.406Z,64.42
2022-08-26T20:48:28.089Z,64.25
2022-08-26T20:50:59.075Z,64.80
2022-08-26T20:53:29.086Z,64.65
2022-08-26T20:56:02.687Z,64.92
2022-08-26T20:58:29.457Z,64.84
2022-08-26T21:00:56.346Z,65.43
2022-08-26T21:03:23.049Z,64.99
2022-08-26T21:05:49.572Z,64.99
2022-08-26T21:08:18.085Z,65.46
2022-08-26T21:10:45.514Z,65.40
2022-08-26T21:13:12.457Z,65.28
2022-08-26T21:15:38.854Z,65.48
2022-08-26T21:18:08.044Z,65.33
2022-08-26T21:20:36.193Z,65.66
2022-08-26T21:23:03.565Z,65.81
2022-08-26T21:25:30.295Z,66.10
2022-08-26T21:27:56.781Z,65.67
2022-08-26T21:30:23.185Z,65.49
2022-08-26T21:32:49.593Z,65.59
2022-08-26T21:35:16.093Z,65.88
2022-08-26T21:37:42.519Z,65.92
2022-08-26T21:40:10.024Z,66.13
2022-08-26T21:42:36.481Z,66.06
2022-08-26T21:45:06.731Z,65.99
2022-08-26T21:47:33.252Z,66.37
2022-08-26T21:49:59.852Z,66.05
2022-08-26T21:52:26.478Z,66.12
2022-08-26T21:54:56.980Z,66.23
2022-08-26T21:57:23.394Z,65.83
2022-08-26T21:59:50.024Z,66.59
2022-08-26T22:02:16.572Z,65.96
2022-08-26T22:04:48.125Z,66.03
2022-08-26T22:07:17.182Z,65.60
2022-08-26T22:09:43.635Z,65.86
2022-08-26T22:12:11.694Z,65.77
2022-08-26T22:14:38.974Z,65.49
2022-08-26T22:17:05.810Z,65.33
2022-08-26T22:19:32.215Z,65.81
2022-08-26T22:22:03.644Z,65.71
2022-08-26T22:24:30.122Z,66.80
2022-08-26T22:26:57.056Z,66.67
2022-08-26T22:29:24.974Z,66.31
2022-08-26T22:31:51.760Z,66.30
2022-08-26T22:34:23.099Z,66.43
2022-08-26T22:36:50.036Z,66.88
2022-08-26T22:39:19.630Z,66.19
2022-08-26T22:41:48.399Z,67.98
2022-08-26T22:44:16.060Z,66.58
2022-08-26T22:46:43.004Z,66.54
2022-08-26T22:49:19.365Z,66.41
2022-08-26T22:51:46.235Z,65.96
2022-08-26T22:54:13.772Z,65.78
2022-08-26T22:56:40.293Z,66.15
2022-08-26T22:59:07.907Z,66.15
2022-08-26T23:01:39.255Z,65.99
2022-08-26T23:04:07.061Z,66.36
2022-08-26T23:06:40.462Z,66.41
2022-08-26T23:09:07.591Z,66.35
2022-08-26T23:11:34.343Z,66.25
2022-08-26T23:14:02.309Z,66.70
2022-08-26T23:16:36.339Z,66.60
2022-08-26T23:19:05.831Z,66.72
2022-08-26T23:21:32.237Z,66.71
2022-08-26T23:23:58.643Z,66.55
2022-08-26T23:26:25.254Z,66.52
2022-08-26T23:28:52.043Z,65.78
2022-08-26T23:31:18.499Z,65.50
2022-08-26T23:34:03.628Z,65.46
2022-08-26T23:36:30.221Z,65.22
2022-08-26T23:38:57.208Z,64.77
2022-08-26T23:41:24.335Z,65.01
2022-08-26T23:43:51.477Z,64.40
2022-08-26T23:46:18.455Z,65.21
2022-08-26T23:48:44.843Z,64.99
2022-08-26T23:51:30.010Z,64.48
2022-08-26T23:53:57.753Z,64.50
2022-08-26T23:56:24.797Z,64.53
2022-08-26T23:58:53.193Z,64.86
